LFSY weather

Cessey Baigneux les Juifs Airfield
Champagne-Ardenne, France

Public forecast

Using degrees Celsius for public forecast. Weather courtesy of forecast.io.

METAR (pilot weather report)

Closest report is Dijon-Bourgogne Airport, 28.1 nm (52.0 km) SE. Retrieved 2019/07/24 01:30 UTC (29 minutes ago):

LFSD 240130Z AUTO 14003KT CAVOK 20/13 Q1016

TAF (pilot weather forecast)

Forecast is more than 12 hours old.

Closest forecast is Dijon-Bourgogne Airport, 28.1 nm (52.0 km) SE. Retrieved 2015/06/01 00:11 UTC (4 years ago):

TAF LFSD 010600Z 0100/0124 CNL